sensor_id;sensor_type;location;lat;lon;timestamp;temperature;humidity
16404;DHT22;8311;50.158;8.642;2022-07-12T00:02:20;24.00;46.90
16404;DHT22;8311;50.158;8.642;2022-07-12T00:05:13;24.00;47.50
16404;DHT22;8311;50.158;8.642;2022-07-12T00:08:06;24.10;47.00
16404;DHT22;8311;50.158;8.642;2022-07-12T00:11:00;24.00;47.00
16404;DHT22;8311;50.158;8.642;2022-07-12T00:13:53;24.00;46.90
16404;DHT22;8311;50.158;8.642;2022-07-12T00:16:46;24.00;47.00
16404;DHT22;8311;50.158;8.642;2022-07-12T00:19:40;24.00;46.90
16404;DHT22;8311;50.158;8.642;2022-07-12T00:22:33;24.00;47.00
16404;DHT22;8311;50.158;8.642;2022-07-12T00:25:26;24.00;47.00
16404;DHT22;8311;50.158;8.642;2022-07-12T00:28:20;24.00;47.00
16404;DHT22;8311;50.158;8.642;2022-07-12T00:31:15;24.00;47.00
16404;DHT22;8311;50.158;8.642;2022-07-12T00:34:08;24.00;47.00
16404;DHT22;8311;50.158;8.642;2022-07-12T00:37:04;24.00;47.00
16404;DHT22;8311;50.158;8.642;2022-07-12T00:39:58;24.00;47.00
16404;DHT22;8311;50.158;8.642;2022-07-12T00:42:51;24.00;47.00
16404;DHT22;8311;50.158;8.642;2022-07-12T00:45:46;24.00;47.10
16404;DHT22;8311;50.158;8.642;2022-07-12T00:48:40;24.00;47.10
16404;DHT22;8311;50.158;8.642;2022-07-12T00:51:33;24.00;47.10
16404;DHT22;8311;50.158;8.642;2022-07-12T00:54:27;24.00;47.10
16404;DHT22;8311;50.158;8.642;2022-07-12T00:57:20;24.00;47.10
16404;DHT22;8311;50.158;8.642;2022-07-12T01:00:16;24.00;47.70
16404;DHT22;8311;50.158;8.642;2022-07-12T01:03:11;24.00;47.10
16404;DHT22;8311;50.158;8.642;2022-07-12T01:06:05;24.00;47.20
16404;DHT22;8311;50.158;8.642;2022-07-12T01:08:59;24.00;47.20
16404;DHT22;8311;50.158;8.642;2022-07-12T01:11:55;24.00;47.10
16404;DHT22;8311;50.158;8.642;2022-07-12T01:14:49;24.00;47.20
16404;DHT22;8311;50.158;8.642;2022-07-12T01:17:44;24.00;47.20
16404;DHT22;8311;50.158;8.642;2022-07-12T01:20:46;24.00;47.20
16404;DHT22;8311;50.158;8.642;2022-07-12T01:23:40;24.00;47.20
16404;DHT22;8311;50.158;8.642;2022-07-12T01:26:34;24.00;47.20
16404;DHT22;8311;50.158;8.642;2022-07-12T01:29:28;24.00;47.20
16404;DHT22;8311;50.158;8.642;2022-07-12T01:32:21;24.00;47.20
16404;DHT22;8311;50.158;8.642;2022-07-12T01:35:18;24.00;47.20
16404;DHT22;8311;50.158;8.642;2022-07-12T01:38:12;24.00;47.20
16404;DHT22;8311;50.158;8.642;2022-07-12T01:41:08;24.00;47.30
16404;DHT22;8311;50.158;8.642;2022-07-12T01:44:02;24.00;47.30
16404;DHT22;8311;50.158;8.642;2022-07-12T01:46:57;24.00;47.20
16404;DHT22;8311;50.158;8.642;2022-07-12T01:49:51;24.00;47.20
16404;DHT22;8311;50.158;8.642;2022-07-12T01:52:45;24.00;47.20
16404;DHT22;8311;50.158;8.642;2022-07-12T01:55:39;24.00;47.30
16404;DHT22;8311;50.158;8.642;2022-07-12T01:58:35;24.00;47.30
16404;DHT22;8311;50.158;8.642;2022-07-12T02:01:29;24.00;47.30
16404;DHT22;8311;50.158;8.642;2022-07-12T02:04:23;24.00;47.30
16404;DHT22;8311;50.158;8.642;2022-07-12T02:07:17;24.00;47.20
16404;DHT22;8311;50.158;8.642;2022-07-12T02:10:10;24.00;47.20
16404;DHT22;8311;50.158;8.642;2022-07-12T02:13:03;24.00;47.30
16404;DHT22;8311;50.158;8.642;2022-07-12T02:15:58;24.00;47.30
16404;DHT22;8311;50.158;8.642;2022-07-12T02:18:52;24.00;47.30
16404;DHT22;8311;50.158;8.642;2022-07-12T02:21:46;24.00;47.30
16404;DHT22;8311;50.158;8.642;2022-07-12T02:24:40;24.00;47.20
16404;DHT22;8311;50.158;8.642;2022-07-12T02:27:33;24.00;47.30
16404;DHT22;8311;50.158;8.642;2022-07-12T02:30:26;24.00;47.20
16404;DHT22;8311;50.158;8.642;2022-07-12T02:33:21;24.00;47.30
16404;DHT22;8311;50.158;8.642;2022-07-12T02:36:15;24.00;47.30
16404;DHT22;8311;50.158;8.642;2022-07-12T02:39:09;23.90;47.20
16404;DHT22;8311;50.158;8.642;2022-07-12T02:42:03;24.00;47.30
16404;DHT22;8311;50.158;8.642;2022-07-12T02:44:57;23.90;47.20
16404;DHT22;8311;50.158;8.642;2022-07-12T02:47:51;24.00;47.30
16404;DHT22;8311;50.158;8.642;2022-07-12T02:50:46;23.90;47.20
16404;DHT22;8311;50.158;8.642;2022-07-12T02:53:39;23.90;47.20
16404;DHT22;8311;50.158;8.642;2022-07-12T02:56:33;24.00;47.30
16404;DHT22;8311;50.158;8.642;2022-07-12T02:59:26;23.90;47.20
16404;DHT22;8311;50.158;8.642;2022-07-12T03:02:19;24.00;47.20
16404;DHT22;8311;50.158;8.642;2022-07-12T03:05:12;24.00;47.30
16404;DHT22;8311;50.158;8.642;2022-07-12T03:08:07;23.90;47.20
16404;DHT22;8311;50.158;8.642;2022-07-12T03:11:01;23.90;47.20
16404;DHT22;8311;50.158;8.642;2022-07-12T03:13:54;24.00;47.30
16404;DHT22;8311;50.158;8.642;2022-07-12T03:16:47;24.00;47.20
16404;DHT22;8311;50.158;8.642;2022-07-12T03:19:41;23.90;47.20
16404;DHT22;8311;50.158;8.642;2022-07-12T03:22:34;23.90;47.20
16404;DHT22;8311;50.158;8.642;2022-07-12T03:25:28;24.00;47.20
16404;DHT22;8311;50.158;8.642;2022-07-12T03:28:22;23.90;47.20
16404;DHT22;8311;50.158;8.642;2022-07-12T03:31:15;23.90;47.20
16404;DHT22;8311;50.158;8.642;2022-07-12T03:34:08;23.90;47.20
16404;DHT22;8311;50.158;8.642;2022-07-12T03:37:01;23.90;47.20
16404;DHT22;8311;50.158;8.642;2022-07-12T03:39:54;24.00;47.30
16404;DHT22;8311;50.158;8.642;2022-07-12T03:42:48;24.00;47.20
16404;DHT22;8311;50.158;8.642;2022-07-12T03:45:43;23.90;47.20
16404;DHT22;8311;50.158;8.642;2022-07-12T03:48:37;23.90;47.20
16404;DHT22;8311;50.158;8.642;2022-07-12T03:51:31;23.90;47.20
16404;DHT22;8311;50.158;8.642;2022-07-12T03:54:24;24.00;47.30
16404;DHT22;8311;50.158;8.642;2022-07-12T03:57:18;23.90;47.10
16404;DHT22;8311;50.158;8.642;2022-07-12T04:00:13;23.90;47.10
16404;DHT22;8311;50.158;8.642;2022-07-12T04:03:07;23.90;47.20
16404;DHT22;8311;50.158;8.642;2022-07-12T04:06:00;23.90;47.20
16404;DHT22;8311;50.158;8.642;2022-07-12T04:08:54;23.90;47.10
16404;DHT22;8311;50.158;8.642;2022-07-12T04:11:47;24.00;47.20
16404;DHT22;8311;50.158;8.642;2022-07-12T04:14:41;23.90;47.20
16404;DHT22;8311;50.158;8.642;2022-07-12T04:17:35;23.90;47.20
16404;DHT22;8311;50.158;8.642;2022-07-12T04:20:29;23.90;47.20
16404;DHT22;8311;50.158;8.642;2022-07-12T04:23:23;23.90;47.20
16404;DHT22;8311;50.158;8.642;2022-07-12T04:26:16;23.90;47.10
16404;DHT22;8311;50.158;8.642;2022-07-12T04:29:09;23.90;47.20
16404;DHT22;8311;50.158;8.642;2022-07-12T04:32:02;23.90;47.20
16404;DHT22;8311;50.158;8.642;2022-07-12T04:34:58;23.90;47.20
16404;DHT22;8311;50.158;8.642;2022-07-12T04:37:51;23.90;47.20
16404;DHT22;8311;50.158;8.642;2022-07-12T04:40:44;23.90;47.10
16404;DHT22;8311;50.158;8.642;2022-07-12T04:43:37;23.90;47.20
16404;DHT22;8311;50.158;8.642;2022-07-12T04:46:30;23.90;47.20
16404;DHT22;8311;50.158;8.642;2022-07-12T04:49:24;23.90;47.20
16404;DHT22;8311;50.158;8.642;2022-07-12T04:52:19;23.90;47.20
16404;DHT22;8311;50.158;8.642;2022-07-12T04:55:12;23.90;47.20
16404;DHT22;8311;50.158;8.642;2022-07-12T04:58:05;23.90;47.20
16404;DHT22;8311;50.158;8.642;2022-07-12T05:00:58;23.90;47.20
16404;DHT22;8311;50.158;8.642;2022-07-12T05:03:51;23.90;47.20
16404;DHT22;8311;50.158;8.642;2022-07-12T05:06:44;23.90;47.20
16404;DHT22;8311;50.158;8.642;2022-07-12T05:09:38;23.90;47.30
16404;DHT22;8311;50.158;8.642;2022-07-12T05:12:32;23.90;47.20
16404;DHT22;8311;50.158;8.642;2022-07-12T05:15:26;23.90;47.20
16404;DHT22;8311;50.158;8.642;2022-07-12T05:18:19;23.90;47.30
16404;DHT22;8311;50.158;8.642;2022-07-12T05:21:12;23.90;47.20
16404;DHT22;8311;50.158;8.642;2022-07-12T05:24:06;23.90;47.30
16404;DHT22;8311;50.158;8.642;2022-07-12T05:27:00;23.90;47.30
16404;DHT22;8311;50.158;8.642;2022-07-12T05:29:53;23.90;47.30
16404;DHT22;8311;50.158;8.642;2022-07-12T05:32:46;23.90;47.30
16404;DHT22;8311;50.158;8.642;2022-07-12T05:35:40;23.90;47.90
16404;DHT22;8311;50.158;8.642;2022-07-12T05:38:33;23.90;47.30
16404;DHT22;8311;50.158;8.642;2022-07-12T05:41:26;23.90;47.30
16404;DHT22;8311;50.158;8.642;2022-07-12T05:44:22;23.90;47.30
16404;DHT22;8311;50.158;8.642;2022-07-12T05:47:15;23.90;47.30
16404;DHT22;8311;50.158;8.642;2022-07-12T05:50:09;23.90;47.30
16404;DHT22;8311;50.158;8.642;2022-07-12T05:53:02;23.90;47.30
16404;DHT22;8311;50.158;8.642;2022-07-12T05:56:13;23.90;47.30
16404;DHT22;8311;50.158;8.642;2022-07-12T05:59:06;23.90;47.90
16404;DHT22;8311;50.158;8.642;2022-07-12T06:02:01;23.90;47.60
16404;DHT22;8311;50.158;8.642;2022-07-12T06:04:54;23.90;47.40
16404;DHT22;8311;50.158;8.642;2022-07-12T06:07:50;23.90;47.40
16404;DHT22;8311;50.158;8.642;2022-07-12T06:10:43;23.90;47.40
16404;DHT22;8311;50.158;8.642;2022-07-12T06:13:36;23.90;47.40
16404;DHT22;8311;50.158;8.642;2022-07-12T06:16:29;23.90;47.50
16404;DHT22;8311;50.158;8.642;2022-07-12T06:19:25;23.90;47.50
16404;DHT22;8311;50.158;8.642;2022-07-12T06:22:18;23.90;47.50
16404;DHT22;8311;50.158;8.642;2022-07-12T06:25:13;23.90;47.50
16404;DHT22;8311;50.158;8.642;2022-07-12T06:28:26;23.90;47.50
16404;DHT22;8311;50.158;8.642;2022-07-12T06:31:19;23.90;47.50
16404;DHT22;8311;50.158;8.642;2022-07-12T06:34:12;23.90;47.50
16404;DHT22;8311;50.158;8.642;2022-07-12T06:37:07;23.90;47.60
16404;DHT22;8311;50.158;8.642;2022-07-12T06:40:01;23.90;47.60
16404;DHT22;8311;50.158;8.642;2022-07-12T06:42:55;23.90;47.60
16404;DHT22;8311;50.158;8.642;2022-07-12T06:45:48;23.90;47.50
16404;DHT22;8311;50.158;8.642;2022-07-12T06:48:41;23.90;47.70
16404;DHT22;8311;50.158;8.642;2022-07-12T06:51:35;23.90;47.60
16404;DHT22;8311;50.158;8.642;2022-07-12T06:54:33;23.90;48.10
16404;DHT22;8311;50.158;8.642;2022-07-12T06:57:26;23.90;49.00
16404;DHT22;8311;50.158;8.642;2022-07-12T07:00:21;23.90;48.70
16404;DHT22;8311;50.158;8.642;2022-07-12T07:03:15;23.90;49.30
16404;DHT22;8311;50.158;8.642;2022-07-12T07:06:08;23.90;49.20
16404;DHT22;8311;50.158;8.642;2022-07-12T07:09:01;23.90;48.70
16404;DHT22;8311;50.158;8.642;2022-07-12T07:12:00;23.90;49.00
16404;DHT22;8311;50.158;8.642;2022-07-12T07:14:53;23.90;49.40
16404;DHT22;8311;50.158;8.642;2022-07-12T07:17:46;24.00;49.30
16404;DHT22;8311;50.158;8.642;2022-07-12T07:20:39;24.00;49.40
16404;DHT22;8311;50.158;8.642;2022-07-12T07:23:32;24.00;49.50
16404;DHT22;8311;50.158;8.642;2022-07-12T07:26:26;24.00;49.40
16404;DHT22;8311;50.158;8.642;2022-07-12T07:29:21;24.00;49.50
16404;DHT22;8311;50.158;8.642;2022-07-12T07:32:31;24.00;49.30
16404;DHT22;8311;50.158;8.642;2022-07-12T07:35:24;24.00;49.40
16404;DHT22;8311;50.158;8.642;2022-07-12T07:38:18;24.00;49.70
16404;DHT22;8311;50.158;8.642;2022-07-12T07:41:12;24.00;49.40
16404;DHT22;8311;50.158;8.642;2022-07-12T07:44:05;24.10;49.30
16404;DHT22;8311;50.158;8.642;2022-07-12T07:47:00;24.10;49.70
16404;DHT22;8311;50.158;8.642;2022-07-12T07:49:55;24.10;49.30
16404;DHT22;8311;50.158;8.642;2022-07-12T07:52:48;24.10;49.30
16404;DHT22;8311;50.158;8.642;2022-07-12T07:55:43;24.10;49.30
16404;DHT22;8311;50.158;8.642;2022-07-12T07:58:37;24.10;49.00
16404;DHT22;8311;50.158;8.642;2022-07-12T08:01:31;24.10;49.30
16404;DHT22;8311;50.158;8.642;2022-07-12T08:04:40;24.20;49.40
16404;DHT22;8311;50.158;8.642;2022-07-12T08:07:33;24.10;49.30
16404;DHT22;8311;50.158;8.642;2022-07-12T08:10:45;24.20;49.50
16404;DHT22;8311;50.158;8.642;2022-07-12T08:13:38;24.20;49.40
16404;DHT22;8311;50.158;8.642;2022-07-12T08:16:32;24.20;49.10
16404;DHT22;8311;50.158;8.642;2022-07-12T08:19:25;24.20;49.20
16404;DHT22;8311;50.158;8.642;2022-07-12T08:22:21;24.30;49.40
16404;DHT22;8311;50.158;8.642;2022-07-12T08:25:14;24.30;49.30
16404;DHT22;8311;50.158;8.642;2022-07-12T08:28:13;24.30;49.00
16404;DHT22;8311;50.158;8.642;2022-07-12T08:31:08;24.30;49.00
16404;DHT22;8311;50.158;8.642;2022-07-12T08:34:02;24.30;49.00
16404;DHT22;8311;50.158;8.642;2022-07-12T08:36:55;24.30;48.90
16404;DHT22;8311;50.158;8.642;2022-07-12T08:39:51;24.30;48.80
16404;DHT22;8311;50.158;8.642;2022-07-12T08:42:44;24.30;48.80
16404;DHT22;8311;50.158;8.642;2022-07-12T08:45:39;24.30;48.80
16404;DHT22;8311;50.158;8.642;2022-07-12T08:48:33;24.30;48.80
16404;DHT22;8311;50.158;8.642;2022-07-12T08:51:27;24.30;48.80
16404;DHT22;8311;50.158;8.642;2022-07-12T08:54:21;24.40;48.90
16404;DHT22;8311;50.158;8.642;2022-07-12T08:57:28;24.40;48.80
16404;DHT22;8311;50.158;8.642;2022-07-12T09:00:23;24.40;48.80
16404;DHT22;8311;50.158;8.642;2022-07-12T09:03:17;24.40;49.50
16404;DHT22;8311;50.158;8.642;2022-07-12T09:06:11;24.40;48.70
16404;DHT22;8311;50.158;8.642;2022-07-12T09:09:04;24.40;48.80
16404;DHT22;8311;50.158;8.642;2022-07-12T09:12:00;24.40;48.70
16404;DHT22;8311;50.158;8.642;2022-07-12T09:14:58;24.40;48.60
16404;DHT22;8311;50.158;8.642;2022-07-12T09:18:04;24.40;48.50
16404;DHT22;8311;50.158;8.642;2022-07-12T09:21:04;24.40;48.50
16404;DHT22;8311;50.158;8.642;2022-07-12T09:23:58;24.40;48.50
16404;DHT22;8311;50.158;8.642;2022-07-12T09:26:53;24.40;48.60
16404;DHT22;8311;50.158;8.642;2022-07-12T09:29:50;24.40;48.40
16404;DHT22;8311;50.158;8.642;2022-07-12T09:32:54;24.40;48.50
16404;DHT22;8311;50.158;8.642;2022-07-12T09:36:07;24.40;48.50
16404;DHT22;8311;50.158;8.642;2022-07-12T09:39:02;24.40;48.70
16404;DHT22;8311;50.158;8.642;2022-07-12T09:41:54;24.40;48.60
16404;DHT22;8311;50.158;8.642;2022-07-12T09:44:49;24.40;48.60
16404;DHT22;8311;50.158;8.642;2022-07-12T09:47:44;24.40;48.60
16404;DHT22;8311;50.158;8.642;2022-07-12T09:50:40;24.40;48.50
16404;DHT22;8311;50.158;8.642;2022-07-12T09:53:42;24.40;48.30
16404;DHT22;8311;50.158;8.642;2022-07-12T09:56:39;24.40;48.20
16404;DHT22;8311;50.158;8.642;2022-07-12T09:59:36;24.50;48.20
16404;DHT22;8311;50.158;8.642;2022-07-12T10:02:32;24.50;48.20
16404;DHT22;8311;50.158;8.642;2022-07-12T10:05:29;24.50;48.10
16404;DHT22;8311;50.158;8.642;2022-07-12T10:08:24;24.50;48.10
16404;DHT22;8311;50.158;8.642;2022-07-12T10:11:18;24.50;48.00
16404;DHT22;8311;50.158;8.642;2022-07-12T10:14:32;24.60;47.90
16404;DHT22;8311;50.158;8.642;2022-07-12T10:17:26;24.60;47.90
16404;DHT22;8311;50.158;8.642;2022-07-12T10:20:21;24.60;47.90
16404;DHT22;8311;50.158;8.642;2022-07-12T10:23:30;24.60;47.70
16404;DHT22;8311;50.158;8.642;2022-07-12T10:26:36;24.70;47.90
16404;DHT22;8311;50.158;8.642;2022-07-12T10:29:33;24.70;47.90
16404;DHT22;8311;50.158;8.642;2022-07-12T10:32:33;24.70;47.70
16404;DHT22;8311;50.158;8.642;2022-07-12T10:35:28;24.70;47.70
16404;DHT22;8311;50.158;8.642;2022-07-12T10:38:21;24.70;47.70
16404;DHT22;8311;50.158;8.642;2022-07-12T10:41:18;24.70;47.70
16404;DHT22;8311;50.158;8.642;2022-07-12T10:44:33;24.70;47.40
16404;DHT22;8311;50.158;8.642;2022-07-12T10:47:26;24.70;47.50
16404;DHT22;8311;50.158;8.642;2022-07-12T10:50:19;24.70;47.50
16404;DHT22;8311;50.158;8.642;2022-07-12T10:53:29;24.70;47.10
16404;DHT22;8311;50.158;8.642;2022-07-12T10:56:25;24.80;47.10
16404;DHT22;8311;50.158;8.642;2022-07-12T10:59:21;24.80;47.00
16404;DHT22;8311;50.158;8.642;2022-07-12T11:02:15;24.80;47.10
16404;DHT22;8311;50.158;8.642;2022-07-12T11:05:18;24.80;46.70
16404;DHT22;8311;50.158;8.642;2022-07-12T11:08:16;24.80;46.70
16404;DHT22;8311;50.158;8.642;2022-07-12T11:11:09;24.80;46.80
16404;DHT22;8311;50.158;8.642;2022-07-12T11:14:04;24.80;46.80
16404;DHT22;8311;50.158;8.642;2022-07-12T11:16:57;24.80;46.90
16404;DHT22;8311;50.158;8.642;2022-07-12T11:20:06;24.80;46.80
16404;DHT22;8311;50.158;8.642;2022-07-12T11:23:00;24.80;46.40
16404;DHT22;8311;50.158;8.642;2022-07-12T11:25:54;24.80;46.40
16404;DHT22;8311;50.158;8.642;2022-07-12T11:28:48;24.90;46.40
16404;DHT22;8311;50.158;8.642;2022-07-12T11:31:43;24.80;46.10
16404;DHT22;8311;50.158;8.642;2022-07-12T11:34:37;24.90;46.30
16404;DHT22;8311;50.158;8.642;2022-07-12T11:37:29;24.90;46.30
16404;DHT22;8311;50.158;8.642;2022-07-12T11:40:24;24.90;46.00
16404;DHT22;8311;50.158;8.642;2022-07-12T11:43:20;24.80;46.10
16404;DHT22;8311;50.158;8.642;2022-07-12T11:46:14;24.90;46.20
16404;DHT22;8311;50.158;8.642;2022-07-12T11:49:14;24.90;46.30
16404;DHT22;8311;50.158;8.642;2022-07-12T11:52:08;24.90;46.10
16404;DHT22;8311;50.158;8.642;2022-07-12T11:55:07;24.80;46.20
16404;DHT22;8311;50.158;8.642;2022-07-12T11:58:03;24.80;46.10
16404;DHT22;8311;50.158;8.642;2022-07-12T12:00:57;24.90;46.20
16404;DHT22;8311;50.158;8.642;2022-07-12T12:03:51;24.90;46.10
16404;DHT22;8311;50.158;8.642;2022-07-12T12:06:46;24.90;46.00
16404;DHT22;8311;50.158;8.642;2022-07-12T12:09:58;24.80;45.70
16404;DHT22;8311;50.158;8.642;2022-07-12T12:12:53;24.90;45.60
16404;DHT22;8311;50.158;8.642;2022-07-12T12:15:51;24.90;45.70
16404;DHT22;8311;50.158;8.642;2022-07-12T12:18:44;24.90;45.60
16404;DHT22;8311;50.158;8.642;2022-07-12T12:21:37;24.80;45.70
16404;DHT22;8311;50.158;8.642;2022-07-12T12:24:32;24.90;45.70
16404;DHT22;8311;50.158;8.642;2022-07-12T12:27:25;24.80;45.50
16404;DHT22;8311;50.158;8.642;2022-07-12T12:30:48;24.90;45.60
16404;DHT22;8311;50.158;8.642;2022-07-12T12:33:43;24.80;45.70
16404;DHT22;8311;50.158;8.642;2022-07-12T12:36:37;24.80;45.60
16404;DHT22;8311;50.158;8.642;2022-07-12T12:39:32;24.80;45.40
16404;DHT22;8311;50.158;8.642;2022-07-12T12:42:26;24.80;45.40
16404;DHT22;8311;50.158;8.642;2022-07-12T12:45:23;24.80;44.70
16404;DHT22;8311;50.158;8.642;2022-07-12T12:48:18;24.80;45.00
16404;DHT22;8311;50.158;8.642;2022-07-12T12:51:12;24.80;45.20
16404;DHT22;8311;50.158;8.642;2022-07-12T12:54:05;24.80;45.00
16404;DHT22;8311;50.158;8.642;2022-07-12T12:57:03;24.80;44.90
16404;DHT22;8311;50.158;8.642;2022-07-12T12:59:56;24.80;44.70
16404;DHT22;8311;50.158;8.642;2022-07-12T13:02:49;24.80;44.40
16404;DHT22;8311;50.158;8.642;2022-07-12T13:05:44;24.80;44.30
16404;DHT22;8311;50.158;8.642;2022-07-12T13:08:37;24.80;44.40
16404;DHT22;8311;50.158;8.642;2022-07-12T13:11:30;24.80;44.30
16404;DHT22;8311;50.158;8.642;2022-07-12T13:14:25;24.80;44.00
16404;DHT22;8311;50.158;8.642;2022-07-12T13:17:19;24.80;43.70
16404;DHT22;8311;50.158;8.642;2022-07-12T13:20:13;24.80;43.80
16404;DHT22;8311;50.158;8.642;2022-07-12T13:23:06;24.80;43.60
16404;DHT22;8311;50.158;8.642;2022-07-12T13:25:59;24.80;43.90
16404;DHT22;8311;50.158;8.642;2022-07-12T13:28:53;24.80;43.50
16404;DHT22;8311;50.158;8.642;2022-07-12T13:31:48;24.80;43.10
16404;DHT22;8311;50.158;8.642;2022-07-12T13:34:48;24.80;43.40
16404;DHT22;8311;50.158;8.642;2022-07-12T13:37:42;24.80;43.30
16404;DHT22;8311;50.158;8.642;2022-07-12T13:40:35;24.80;43.10
16404;DHT22;8311;50.158;8.642;2022-07-12T13:43:28;24.80;42.90
16404;DHT22;8311;50.158;8.642;2022-07-12T13:46:22;24.80;43.00
16404;DHT22;8311;50.158;8.642;2022-07-12T13:49:17;24.80;43.80
16404;DHT22;8311;50.158;8.642;2022-07-12T13:52:10;24.80;42.80
16404;DHT22;8311;50.158;8.642;2022-07-12T13:55:04;24.80;42.70
16404;DHT22;8311;50.158;8.642;2022-07-12T13:57:58;24.80;42.80
16404;DHT22;8311;50.158;8.642;2022-07-12T14:00:51;24.80;42.80
16404;DHT22;8311;50.158;8.642;2022-07-12T14:03:47;24.80;43.00
16404;DHT22;8311;50.158;8.642;2022-07-12T14:06:41;24.80;42.50
16404;DHT22;8311;50.158;8.642;2022-07-12T14:09:35;24.80;42.40
16404;DHT22;8311;50.158;8.642;2022-07-12T14:12:28;24.80;42.20
16404;DHT22;8311;50.158;8.642;2022-07-12T14:15:20;24.80;41.70
16404;DHT22;8311;50.158;8.642;2022-07-12T14:18:15;24.80;42.00
16404;DHT22;8311;50.158;8.642;2022-07-12T14:21:09;24.80;41.90
16404;DHT22;8311;50.158;8.642;2022-07-12T14:24:02;24.80;41.70
16404;DHT22;8311;50.158;8.642;2022-07-12T14:26:55;24.80;41.80
16404;DHT22;8311;50.158;8.642;2022-07-12T14:29:48;24.80;42.00
16404;DHT22;8311;50.158;8.642;2022-07-12T14:32:42;24.80;41.90
16404;DHT22;8311;50.158;8.642;2022-07-12T14:35:42;24.80;41.80
16404;DHT22;8311;50.158;8.642;2022-07-12T14:38:36;24.80;41.60
16404;DHT22;8311;50.158;8.642;2022-07-12T14:41:29;24.80;41.70
16404;DHT22;8311;50.158;8.642;2022-07-12T14:44:23;24.80;41.50
16404;DHT22;8311;50.158;8.642;2022-07-12T14:47:17;24.80;41.50
16404;DHT22;8311;50.158;8.642;2022-07-12T14:50:11;24.80;41.20
16404;DHT22;8311;50.158;8.642;2022-07-12T14:53:06;24.80;41.40
16404;DHT22;8311;50.158;8.642;2022-07-12T14:56:00;24.80;41.50
16404;DHT22;8311;50.158;8.642;2022-07-12T14:58:53;24.80;41.60
16404;DHT22;8311;50.158;8.642;2022-07-12T15:01:46;24.80;41.40
16404;DHT22;8311;50.158;8.642;2022-07-12T15:04:39;24.80;41.40
16404;DHT22;8311;50.158;8.642;2022-07-12T15:07:32;24.80;41.30
16404;DHT22;8311;50.158;8.642;2022-07-12T15:10:26;24.80;41.40
16404;DHT22;8311;50.158;8.642;2022-07-12T15:13:19;24.80;41.10
16404;DHT22;8311;50.158;8.642;2022-07-12T15:16:12;24.80;41.30
16404;DHT22;8311;50.158;8.642;2022-07-12T15:19:07;24.80;41.30
16404;DHT22;8311;50.158;8.642;2022-07-12T15:22:00;24.80;41.10
16404;DHT22;8311;50.158;8.642;2022-07-12T15:24:54;24.80;41.10
16404;DHT22;8311;50.158;8.642;2022-07-12T15:27:49;24.80;40.80
16404;DHT22;8311;50.158;8.642;2022-07-12T15:30:43;24.80;41.10
16404;DHT22;8311;50.158;8.642;2022-07-12T15:33:36;24.80;41.20
16404;DHT22;8311;50.158;8.642;2022-07-12T15:36:29;24.80;41.00
16404;DHT22;8311;50.158;8.642;2022-07-12T15:39:23;24.80;41.20
16404;DHT22;8311;50.158;8.642;2022-07-12T15:42:16;24.80;41.20
16404;DHT22;8311;50.158;8.642;2022-07-12T15:45:11;24.80;41.00
16404;DHT22;8311;50.158;8.642;2022-07-12T15:48:05;24.80;41.10
16404;DHT22;8311;50.158;8.642;2022-07-12T15:50:59;24.80;41.10
16404;DHT22;8311;50.158;8.642;2022-07-12T15:53:53;24.80;41.50
16404;DHT22;8311;50.158;8.642;2022-07-12T15:56:45;24.80;40.80
16404;DHT22;8311;50.158;8.642;2022-07-12T15:59:46;24.80;40.80
16404;DHT22;8311;50.158;8.642;2022-07-12T16:02:41;24.80;41.00
16404;DHT22;8311;50.158;8.642;2022-07-12T16:05:36;24.80;41.00
16404;DHT22;8311;50.158;8.642;2022-07-12T16:08:29;24.80;40.80
16404;DHT22;8311;50.158;8.642;2022-07-12T16:11:24;24.80;40.70
16404;DHT22;8311;50.158;8.642;2022-07-12T16:14:17;24.80;40.70
16404;DHT22;8311;50.158;8.642;2022-07-12T16:17:15;24.80;41.00
16404;DHT22;8311;50.158;8.642;2022-07-12T16:20:11;24.80;40.50
16404;DHT22;8311;50.158;8.642;2022-07-12T16:23:05;24.80;40.50
16404;DHT22;8311;50.158;8.642;2022-07-12T16:25:58;24.80;40.60
16404;DHT22;8311;50.158;8.642;2022-07-12T16:28:54;24.80;40.90
16404;DHT22;8311;50.158;8.642;2022-07-12T16:31:48;24.80;40.90
16404;DHT22;8311;50.158;8.642;2022-07-12T16:35:03;24.80;40.70
16404;DHT22;8311;50.158;8.642;2022-07-12T16:37:58;24.80;40.80
16404;DHT22;8311;50.158;8.642;2022-07-12T16:40:58;24.80;40.60
16404;DHT22;8311;50.158;8.642;2022-07-12T16:43:51;24.80;40.70
16404;DHT22;8311;50.158;8.642;2022-07-12T16:46:45;24.80;40.80
16404;DHT22;8311;50.158;8.642;2022-07-12T16:49:38;24.80;40.70
16404;DHT22;8311;50.158;8.642;2022-07-12T16:52:31;24.80;40.80
16404;DHT22;8311;50.158;8.642;2022-07-12T16:55:26;24.80;41.10
16404;DHT22;8311;50.158;8.642;2022-07-12T16:58:19;24.80;40.80
16404;DHT22;8311;50.158;8.642;2022-07-12T17:01:13;24.80;41.00
16404;DHT22;8311;50.158;8.642;2022-07-12T17:04:06;24.80;40.90
16404;DHT22;8311;50.158;8.642;2022-07-12T17:06:59;24.80;40.90
16404;DHT22;8311;50.158;8.642;2022-07-12T17:09:52;24.80;40.90
16404;DHT22;8311;50.158;8.642;2022-07-12T17:12:47;24.80;40.90
16404;DHT22;8311;50.158;8.642;2022-07-12T17:15:41;24.80;41.00
16404;DHT22;8311;50.158;8.642;2022-07-12T17:18:37;24.80;40.90
16404;DHT22;8311;50.158;8.642;2022-07-12T17:21:30;24.80;40.90
16404;DHT22;8311;50.158;8.642;2022-07-12T17:24:23;24.80;40.90
16404;DHT22;8311;50.158;8.642;2022-07-12T17:27:16;24.80;40.80
16404;DHT22;8311;50.158;8.642;2022-07-12T17:30:12;24.80;41.00
16404;DHT22;8311;50.158;8.642;2022-07-12T17:33:06;24.80;41.10
16404;DHT22;8311;50.158;8.642;2022-07-12T17:35:59;24.80;41.10
16404;DHT22;8311;50.158;8.642;2022-07-12T17:38:52;24.80;41.20
16404;DHT22;8311;50.158;8.642;2022-07-12T17:41:45;24.80;41.20
16404;DHT22;8311;50.158;8.642;2022-07-12T17:44:38;24.80;41.10
16404;DHT22;8311;50.158;8.642;2022-07-12T17:47:34;24.80;41.30
16404;DHT22;8311;50.158;8.642;2022-07-12T17:50:28;24.80;41.20
16404;DHT22;8311;50.158;8.642;2022-07-12T17:53:21;24.80;41.20
16404;DHT22;8311;50.158;8.642;2022-07-12T17:56:15;24.80;41.50
16404;DHT22;8311;50.158;8.642;2022-07-12T17:59:08;24.80;41.30
16404;DHT22;8311;50.158;8.642;2022-07-12T18:02:02;24.80;41.30
16404;DHT22;8311;50.158;8.642;2022-07-12T18:04:58;24.80;41.20
16404;DHT22;8311;50.158;8.642;2022-07-12T18:07:51;24.80;41.20
16404;DHT22;8311;50.158;8.642;2022-07-12T18:10:44;24.80;41.10
16404;DHT22;8311;50.158;8.642;2022-07-12T18:13:37;24.80;41.00
16404;DHT22;8311;50.158;8.642;2022-07-12T18:16:47;24.80;41.20
16404;DHT22;8311;50.158;8.642;2022-07-12T18:20:04;24.70;41.30
16404;DHT22;8311;50.158;8.642;2022-07-12T18:22:58;24.70;41.60
16404;DHT22;8311;50.158;8.642;2022-07-12T18:25:51;24.70;41.80
16404;DHT22;8311;50.158;8.642;2022-07-12T18:28:45;24.70;41.80
16404;DHT22;8311;50.158;8.642;2022-07-12T18:31:39;24.70;42.00
16404;DHT22;8311;50.158;8.642;2022-07-12T18:34:33;24.70;42.10
16404;DHT22;8311;50.158;8.642;2022-07-12T18:37:29;24.70;42.20
16404;DHT22;8311;50.158;8.642;2022-07-12T18:40:22;24.70;42.30
16404;DHT22;8311;50.158;8.642;2022-07-12T18:43:15;24.70;42.50